Time;durP1;ratioP1;P1;durP2;ratioP2;P2;SDS_P1;SDS_P2;PMS_P1;PMS_P2;Temp;Humidity;BMP_temperature;BMP_pressure;BME280_temperature;BME280_humidity;BME280_pressure;Samples;Min_cycle;Max_cycle;Signal;HPM_P1;HPM_P2
2021/04/06 00:01:22;;;;;;;3.40;1.42;;;0.20;99.90;;;;;;5014444;28;20182;-58
2021/04/06 00:03:50;;;;;;;3.60;1.73;;;0.20;99.90;;;;;;5014192;28;20186;-58
2021/04/06 00:06:16;;;;;;;2.42;1.60;;;0.20;99.90;;;;;;5013201;28;20891;-58
2021/04/06 00:08:42;;;;;;;7.17;1.67;;;0.20;99.90;;;;;;5014271;28;20261;-58
2021/04/06 00:11:10;;;;;;;3.60;1.65;;;0.20;99.90;;;;;;5013239;28;20788;-58
2021/04/06 00:13:37;;;;;;;6.68;2.13;;;0.20;99.90;;;;;;5014158;28;20183;-60
2021/04/06 00:16:06;;;;;;;7.25;2.00;;;0.10;99.90;;;;;;5014234;28;20217;-62
2021/04/06 00:18:34;;;;;;;2.60;1.42;;;0.20;99.90;;;;;;5014210;28;20181;-62
2021/04/06 00:21:03;;;;;;;3.33;1.48;;;0.20;99.90;;;;;;5014084;28;20197;-62
2021/04/06 00:23:31;;;;;;;6.10;1.58;;;0.20;99.90;;;;;;5013908;28;20188;-58
2021/04/06 00:25:58;;;;;;;2.15;1.10;;;0.30;99.90;;;;;;5014236;28;20179;-58
2021/04/06 00:28:34;;;;;;;5.50;2.00;;;0.30;99.90;;;;;;5014039;28;20182;-58
2021/04/06 00:31:02;;;;;;;3.30;1.60;;;0.40;99.90;;;;;;5013980;28;20619;-61
2021/04/06 00:33:56;;;;;;;2.65;1.30;;;0.40;99.90;;;;;;5013638;28;20178;-62
2021/04/06 00:36:26;;;;;;;7.07;1.50;;;0.40;99.90;;;;;;5012048;28;20210;-58
2021/04/06 00:38:53;;;;;;;1.73;1.45;;;0.50;99.90;;;;;;5013712;28;20269;-62
2021/04/06 00:41:21;;;;;;;2.13;1.20;;;0.50;99.90;;;;;;5012809;28;20195;-61
2021/04/06 00:43:48;;;;;;;3.33;1.70;;;0.50;99.90;;;;;;5013531;28;20175;-58
2021/04/06 00:46:21;;;;;;;3.17;1.65;;;0.50;99.90;;;;;;5013779;28;20186;-58
2021/04/06 00:48:50;;;;;;;2.88;1.70;;;0.40;99.90;;;;;;5013820;28;20253;-58
2021/04/06 00:51:18;;;;;;;2.33;1.42;;;0.40;99.90;;;;;;5013709;28;20284;-62
2021/04/06 00:54:04;;;;;;;2.97;1.77;;;0.40;99.90;;;;;;5013629;28;20189;-62
2021/04/06 00:56:41;;;;;;;7.40;1.67;;;0.40;99.90;;;;;;5013659;28;20178;-59
2021/04/06 00:59:11;;;;;;;2.00;1.20;;;0.30;99.90;;;;;;5013820;28;20179;-58
2021/04/06 01:01:42;;;;;;;2.53;1.40;;;0.30;99.90;;;;;;5012786;28;20195;-58
2021/04/06 01:04:21;;;;;;;3.28;1.63;;;0.30;99.90;;;;;;5013482;28;20179;-58
2021/04/06 01:07:14;;;;;;;4.57;1.65;;;0.30;99.90;;;;;;5013620;28;20517;-58
2021/04/06 01:09:45;;;;;;;4.05;1.25;;;0.30;99.90;;;;;;5013677;28;20198;-58
2021/04/06 01:12:13;;;;;;;2.28;1.05;;;0.40;99.90;;;;;;5013473;28;20302;-58
2021/04/06 01:14:43;;;;;;;3.03;1.40;;;0.40;99.90;;;;;;5013262;28;20186;-58
2021/04/06 01:17:11;;;;;;;1.80;1.48;;;0.40;99.90;;;;;;5013513;28;20237;-58
2021/04/06 01:19:37;;;;;;;4.30;1.20;;;0.40;99.90;;;;;;5017560;28;20615;-58
2021/04/06 01:22:09;;;;;;;2.83;1.37;;;0.40;99.90;;;;;;5017319;28;20189;-58
2021/04/06 01:24:36;;;;;;;4.25;0.85;;;0.40;99.90;;;;;;5016978;28;20432;-58
2021/04/06 01:27:03;;;;;;;4.25;1.55;;;0.50;99.90;;;;;;5017179;28;20175;-58
2021/04/06 01:29:29;;;;;;;7.05;1.90;;;0.60;99.90;;;;;;5017573;28;20300;-58
2021/04/06 01:31:57;;;;;;;5.20;1.17;;;0.50;99.90;;;;;;5017099;28;20710;-58
2021/04/06 01:34:23;;;;;;;3.50;1.10;;;0.60;99.90;;;;;;5016804;28;20483;-58
2021/04/06 01:36:53;;;;;;;1.60;1.20;;;0.50;99.90;;;;;;5017077;28;20551;-58
2021/04/06 01:39:22;;;;;;;3.83;1.98;;;0.50;99.90;;;;;;5016859;28;20190;-58
2021/04/06 01:41:51;;;;;;;1.75;0.90;;;0.50;99.90;;;;;;5016913;28;20179;-58
2021/04/06 01:44:17;;;;;;;1.73;1.23;;;0.50;99.90;;;;;;5016524;28;20187;-58
2021/04/06 01:46:45;;;;;;;2.97;1.33;;;0.50;99.90;;;;;;5016800;28;20670;-58
2021/04/06 01:49:13;;;;;;;5.25;1.83;;;0.50;99.90;;;;;;5016764;28;20604;-58
2021/04/06 01:51:39;;;;;;;2.00;1.13;;;0.40;99.90;;;;;;5016680;28;20207;-60
2021/04/06 01:54:07;;;;;;;3.70;1.60;;;0.50;99.90;;;;;;5016397;28;20179;-60
2021/04/06 01:56:38;;;;;;;2.80;1.55;;;0.50;99.90;;;;;;5016679;28;20175;-60
2021/04/06 01:59:07;;;;;;;4.07;1.58;;;0.50;99.90;;;;;;5016765;28;20175;-60
2021/04/06 02:01:34;;;;;;;3.35;1.20;;;0.40;99.90;;;;;;5016754;28;20266;-60
2021/04/06 02:04:05;;;;;;;3.92;1.40;;;0.50;99.90;;;;;;5016375;28;20187;-60
2021/04/06 02:06:34;;;;;;;3.22;1.70;;;0.50;99.90;;;;;;5016526;28;20183;-60
2021/04/06 02:09:00;;;;;;;1.52;1.13;;;0.50;99.90;;;;;;5016652;28;20198;-60
2021/04/06 02:11:31;;;;;;;4.70;2.40;;;0.50;99.90;;;;;;5016504;28;20206;-59
2021/04/06 02:14:08;;;;;;;2.70;1.40;;;0.60;99.90;;;;;;5016263;28;20608;-60
2021/04/06 02:16:52;;;;;;;5.93;1.80;;;0.50;99.90;;;;;;5016291;28;20182;-60
2021/04/06 02:19:28;;;;;;;3.53;2.03;;;0.50;99.90;;;;;;5016430;28;20175;-60
2021/04/06 02:21:57;;;;;;;2.53;1.00;;;0.50;99.90;;;;;;5016397;28;20623;-60
2021/04/06 02:24:33;;;;;;;2.13;1.20;;;0.50;99.90;;;;;;5016369;28;20197;-60
2021/04/06 02:27:10;;;;;;;2.45;2.22;;;0.50;99.90;;;;;;5016939;28;20178;-60
2021/04/06 02:29:41;;;;;;;2.47;2.03;;;0.50;99.90;;;;;;5016164;28;20213;-60
2021/04/06 02:32:15;;;;;;;2.58;1.60;;;0.50;99.90;;;;;;5016248;28;20629;-61
2021/04/06 02:34:46;;;;;;;1.98;1.50;;;0.50;99.90;;;;;;5016126;28;20213;-61
2021/04/06 02:37:13;;;;;;;3.28;1.75;;;0.50;99.90;;;;;;5016043;28;20244;-61
2021/04/06 02:39:39;;;;;;;4.30;2.13;;;0.60;99.90;;;;;;5015797;28;20194;-61
2021/04/06 02:42:40;;;;;;;6.70;1.73;;;0.70;99.90;;;;;;5016061;28;20178;-61
2021/04/06 02:45:21;;;;;;;12.88;1.85;;;0.90;99.90;;;;;;5015515;28;20264;-59
2021/04/06 02:47:53;;;;;;;6.72;1.10;;;1.00;99.90;;;;;;5015705;28;20183;-58
2021/04/06 02:50:21;;;;;;;5.72;1.83;;;1.10;99.90;;;;;;5015805;28;20190;-58
2021/04/06 02:52:47;;;;;;;2.63;1.75;;;1.00;99.90;;;;;;5015596;28;20245;-59
2021/04/06 02:55:15;;;;;;;4.30;2.23;;;1.10;99.90;;;;;;5015553;28;20604;-60
2021/04/06 02:57:45;;;;;;;1.88;1.70;;;1.10;99.90;;;;;;5015496;28;20209;-59
2021/04/06 03:00:32;;;;;;;4.03;1.55;;;1.10;99.90;;;;;;5015530;28;20575;-60
2021/04/06 03:03:03;;;;;;;4.35;1.58;;;1.20;99.90;;;;;;5015411;28;20179;-59
2021/04/06 03:05:38;;;;;;;3.08;1.35;;;1.20;99.90;;;;;;5015229;28;20183;-59
2021/04/06 03:08:05;;;;;;;3.15;1.52;;;1.20;99.90;;;;;;5015345;28;20277;-59
2021/04/06 03:10:33;;;;;;;3.80;2.42;;;1.20;99.90;;;;;;5015227;28;20524;-59
2021/04/06 03:13:13;;;;;;;2.08;1.48;;;1.20;99.90;;;;;;5014176;28;20202;-58
2021/04/06 03:15:41;;;;;;;5.50;1.67;;;1.20;99.90;;;;;;5015158;28;20178;-59
2021/04/06 03:18:08;;;;;;;4.82;2.42;;;1.30;99.90;;;;;;5015132;28;20175;-59
2021/04/06 03:20:35;;;;;;;2.63;1.30;;;1.20;99.90;;;;;;5015019;28;20643;-59
2021/04/06 03:23:02;;;;;;;3.35;1.42;;;1.20;99.90;;;;;;5015043;28;20201;-59
2021/04/06 03:25:30;;;;;;;6.60;2.20;;;1.30;99.90;;;;;;5014734;28;20187;-60
2021/04/06 03:27:56;;;;;;;6.28;2.67;;;1.30;99.90;;;;;;5014982;28;20190;-60
2021/04/06 03:30:32;;;;;;;2.20;1.50;;;1.30;99.90;;;;;;5013930;28;20203;-61
2021/04/06 03:33:04;;;;;;;4.95;1.98;;;1.40;99.90;;;;;;5015356;28;20170;-62
2021/04/06 03:35:32;;;;;;;3.42;2.13;;;1.60;99.90;;;;;;5015128;28;20190;-61
2021/04/06 03:37:59;;;;;;;2.95;2.20;;;1.60;99.90;;;;;;5014976;28;20218;-61
2021/04/06 03:40:29;;;;;;;4.78;2.50;;;1.40;99.90;;;;;;5015286;28;20186;-61
2021/04/06 03:42:54;;;;;;;8.00;2.28;;;1.40;99.90;;;;;;5014896;28;20202;-61
2021/04/06 03:45:20;;;;;;;2.90;1.97;;;1.30;99.90;;;;;;5014867;28;20187;-62
2021/04/06 03:47:57;;;;;;;2.30;2.00;;;1.30;99.90;;;;;;5015373;28;20205;-62
2021/04/06 03:50:38;;;;;;;7.53;1.95;;;1.30;99.90;;;;;;5014502;28;20238;-59
2021/04/06 03:53:09;;;;;;;4.32;1.85;;;1.30;99.90;;;;;;5014415;28;20680;-59
2021/04/06 03:55:37;;;;;;;4.00;1.58;;;1.30;99.90;;;;;;5014367;28;20175;-59
2021/04/06 03:58:18;;;;;;;9.32;2.47;;;1.40;99.90;;;;;;5014328;28;20174;-59
2021/04/06 04:00:43;;;;;;;12.20;2.35;;;1.40;99.90;;;;;;5014434;28;20340;-59
2021/04/06 04:03:09;;;;;;;5.67;2.27;;;1.40;99.90;;;;;;5014039;28;20559;-59
2021/04/06 04:05:35;;;;;;;2.72;1.75;;;1.40;99.90;;;;;;5014496;28;20194;-59
2021/04/06 04:08:01;;;;;;;3.50;1.67;;;1.50;99.90;;;;;;5014413;28;20183;-59
2021/04/06 04:10:27;;;;;;;5.65;2.28;;;1.60;99.90;;;;;;5014392;28;20203;-59
2021/04/06 04:12:54;;;;;;;8.30;2.20;;;1.50;99.90;;;;;;5014222;28;20571;-59
2021/04/06 04:15:21;;;;;;;7.53;1.88;;;1.50;99.90;;;;;;5013878;28;20182;-59
2021/04/06 04:17:48;;;;;;;6.68;1.83;;;1.60;99.90;;;;;;5014293;28;20514;-59
2021/04/06 04:20:15;;;;;;;15.10;2.65;;;1.50;99.90;;;;;;5013948;28;20206;-59
2021/04/06 04:22:41;;;;;;;4.95;2.15;;;1.60;99.90;;;;;;5014157;28;20274;-59
2021/04/06 04:25:09;;;;;;;4.47;1.75;;;1.60;99.90;;;;;;5014370;28;20631;-59
2021/04/06 04:27:34;;;;;;;2.95;1.90;;;1.50;99.90;;;;;;5014083;28;20221;-60
2021/04/06 04:30:00;;;;;;;11.37;2.70;;;1.50;99.90;;;;;;5013794;28;20202;-60
2021/04/06 04:32:25;;;;;;;4.33;1.90;;;1.40;99.90;;;;;;5014037;28;20170;-60
2021/04/06 04:34:51;;;;;;;2.73;1.40;;;1.40;99.90;;;;;;5013749;28;20257;-60
2021/04/06 04:37:17;;;;;;;3.90;2.00;;;1.40;99.90;;;;;;5014008;28;20241;-60
2021/04/06 04:39:43;;;;;;;8.10;2.17;;;1.50;99.90;;;;;;5012951;28;20290;-60
2021/04/06 04:42:08;;;;;;;5.43;2.00;;;1.40;99.90;;;;;;5014087;28;20274;-60
2021/04/06 04:44:34;;;;;;;4.90;1.55;;;1.50;99.90;;;;;;5013749;28;20528;-60
2021/04/06 04:47:00;;;;;;;7.20;2.30;;;1.50;99.90;;;;;;5014124;28;20253;-60
2021/04/06 04:49:26;;;;;;;10.43;1.77;;;1.40;99.90;;;;;;5013691;28;20604;-60
2021/04/06 04:51:51;;;;;;;3.50;2.00;;;1.40;99.90;;;;;;5013584;28;20206;-60
2021/04/06 04:54:17;;;;;;;6.63;2.30;;;1.50;99.90;;;;;;5017052;28;20193;-60
2021/04/06 04:56:43;;;;;;;5.57;2.30;;;1.60;99.90;;;;;;5017672;28;20631;-60
2021/04/06 04:59:09;;;;;;;6.13;2.33;;;1.70;99.90;;;;;;5017629;28;20486;-60
2021/04/06 05:01:35;;;;;;;11.20;2.87;;;1.70;99.90;;;;;;5017876;28;20178;-59
2021/04/06 05:04:01;;;;;;;12.38;1.52;;;1.70;99.90;;;;;;5017527;28;20906;-59
2021/04/06 05:06:26;;;;;;;7.53;1.80;;;1.70;99.90;;;;;;5017643;28;20209;-62
2021/04/06 05:08:52;;;;;;;7.53;2.50;;;1.70;99.90;;;;;;5017691;28;20190;-60
2021/04/06 05:11:17;;;;;;;10.80;2.80;;;1.80;99.90;;;;;;5017372;28;20659;-60
2021/04/06 05:13:43;;;;;;;11.20;3.23;;;1.70;93.40;;;;;;5017034;28;20214;-60
2021/04/06 05:16:08;;;;;;;7.40;2.40;;;1.70;67.90;;;;;;5017488;28;20171;-58
2021/04/06 05:18:34;;;;;;;3.70;1.70;;;1.80;52.90;;;;;;5017452;28;20253;-59
2021/04/06 05:20:59;;;;;;;5.77;3.07;;;2.00;48.50;;;;;;5017530;28;20193;-60
2021/04/06 05:23:25;;;;;;;8.13;2.90;;;2.00;12.10;;;;;;5017171;28;20183;-60
2021/04/06 05:25:51;;;;;;;9.27;2.37;;;2.00;1.00;;;;;;5017655;28;20619;-59
2021/04/06 05:28:17;;;;;;;6.53;2.07;;;1.90;1.00;;;;;;5017616;28;20901;-60
2021/04/06 05:30:42;;;;;;;7.47;2.33;;;2.10;1.00;;;;;;5018598;28;20210;-61
2021/04/06 05:33:08;;;;;;;7.97;2.97;;;2.60;1.00;;;;;;5016281;28;20400;-59
2021/04/06 05:35:33;;;;;;;12.33;2.63;;;3.10;1.00;;;;;;5017693;28;20186;-61
2021/04/06 05:37:59;;;;;;;15.50;2.40;;;3.50;1.00;;;;;;5018071;28;20191;-60
2021/04/06 05:40:26;;;;;;;12.10;2.37;;;3.70;41.60;;;;;;5018028;28;20179;-59
2021/04/06 05:42:52;;;;;;;8.55;2.15;;;3.80;1.00;;;;;;5017026;28;20422;-61
2021/04/06 05:45:21;;;;;;;6.17;2.50;;;4.20;99.90;;;;;;5017344;28;20191;-61
2021/04/06 05:47:51;;;;;;;5.00;1.40;;;4.40;1.00;;;;;;5017162;28;20441;-61
2021/04/06 05:50:17;;;;;;;6.53;2.75;;;4.40;1.00;;;;;;5016916;28;20207;-61
2021/04/06 05:52:43;;;;;;;4.13;1.60;;;4.70;99.90;;;;;;5017016;28;20175;-62
2021/04/06 05:55:10;;;;;;;8.35;1.52;;;5.00;99.90;;;;;;5016845;28;20185;-61
2021/04/06 05:57:35;;;;;;;4.35;1.90;;;5.20;99.90;;;;;;5016914;28;20608;-61
2021/04/06 06:00:06;;;;;;;2.10;1.30;;;5.10;1.00;;;;;;5017057;28;20207;-61
2021/04/06 06:02:32;;;;;;;4.25;1.13;;;4.10;1.00;;;;;;5016579;28;20206;-59
2021/04/06 06:04:57;;;;;;;12.40;1.63;;;2.80;99.90;;;;;;5016695;28;20608;-60
2021/04/06 06:07:24;;;;;;;5.97;2.03;;;2.40;1.00;;;;;;5016714;28;20229;-60
2021/04/06 06:09:50;;;;;;;9.38;1.60;;;2.20;1.00;;;;;;5016916;28;20179;-60
2021/04/06 06:12:20;;;;;;;6.10;1.43;;;2.00;67.70;;;;;;5017362;28;20698;-61
2021/04/06 06:14:53;;;;;;;3.35;1.73;;;2.10;99.90;;;;;;5016934;28;20426;-61
2021/04/06 06:17:20;;;;;;;4.85;1.50;;;2.10;98.80;;;;;;5017596;28;20253;-60
2021/04/06 06:20:16;;;;;;;5.60;2.10;;;2.10;88.30;;;;;;5016770;28;20194;-60
2021/04/06 06:22:42;;;;;;;5.38;1.98;;;2.10;77.70;;;;;;5017543;28;20179;-61
2021/04/06 06:25:13;;;;;;;7.13;1.55;;;2.20;99.90;;;;;;5016558;28;20189;-61
2021/04/06 06:27:41;;;;;;;4.38;2.22;;;2.60;99.90;;;;;;5016353;28;20171;-61
2021/04/06 06:30:36;;;;;;;4.57;2.03;;;3.90;99.90;;;;;;5016224;28;20194;-63
2021/04/06 06:33:26;;;;;;;6.10;1.63;;;5.40;1.00;;;;;;5014958;28;20247;-65
2021/04/06 06:35:54;;;;;;;7.68;2.60;;;5.90;99.90;;;;;;5024408;28;20183;-64
2021/04/06 06:38:23;;;;;;;7.38;3.22;;;5.70;1.00;;;;;;5036968;28;20489;-64
2021/04/06 06:40:53;;;;;;;12.15;2.63;;;5.00;1.00;;;;;;5026287;28;20581;-64
2021/04/06 06:43:20;;;;;;;4.50;2.03;;;4.60;1.00;;;;;;5017453;28;20219;-62
2021/04/06 06:45:48;;;;;;;4.35;1.55;;;4.30;51.00;;;;;;5017447;28;20187;-63
2021/04/06 06:48:31;;;;;;;7.25;2.15;;;4.00;99.90;;;;;;5017465;28;20194;-63
2021/04/06 06:50:58;;;;;;;14.32;2.30;;;3.40;94.00;;;;;;5016548;28;20210;-64
2021/04/06 06:53:31;;;;;;;6.88;2.20;;;3.60;67.70;;;;;;5016756;28;20621;-63
2021/04/06 06:55:57;;;;;;;6.05;2.20;;;4.90;80.30;;;;;;5016510;28;20235;-64
2021/04/06 06:58:33;;;;;;;4.80;2.27;;;5.70;1.00;;;;;;5016533;28;20204;-63
2021/04/06 07:01:00;;;;;;;6.72;2.47;;;5.80;1.00;;;;;;5017332;28;20519;-63
2021/04/06 07:03:26;;;;;;;7.28;2.17;;;5.40;1.00;;;;;;5016317;28;20188;-64
2021/04/06 07:05:52;;;;;;;6.40;1.65;;;5.00;1.00;;;;;;5018833;28;20512;-65
2021/04/06 07:08:34;;;;;;;8.95;2.00;;;4.70;99.90;;;;;;5033726;28;20191;-64
2021/04/06 07:11:01;;;;;;;8.13;2.20;;;4.40;1.00;;;;;;5017137;28;20353;-63
2021/04/06 07:13:32;;;;;;;7.10;1.90;;;4.50;99.90;;;;;;5017379;28;20621;-63
2021/04/06 07:15:59;;;;;;;5.30;1.58;;;5.20;1.00;;;;;;5016100;28;20245;-65
2021/04/06 07:18:27;;;;;;;4.03;1.80;;;5.40;99.90;;;;;;5015173;28;20188;-64
2021/04/06 07:21:00;;;;;;;3.58;1.60;;;5.70;1.00;;;;;;5016040;28;20253;-65
2021/04/06 07:23:35;;;;;;;2.60;2.08;;;5.70;1.00;;;;;;5015106;28;20178;-63
2021/04/06 07:26:04;;;;;;;5.78;1.95;;;5.60;99.90;;;;;;5014708;28;20250;-64
2021/04/06 07:28:31;;;;;;;5.10;1.95;;;5.40;99.90;;;;;;5015018;28;20191;-64
2021/04/06 07:30:57;;;;;;;6.47;2.08;;;4.70;1.00;;;;;;5014701;28;20202;-65
2021/04/06 07:33:23;;;;;;;9.07;2.43;;;4.00;1.00;;;;;;5014477;28;20171;-64
2021/04/06 07:35:49;;;;;;;7.43;1.83;;;3.70;1.00;;;;;;5014634;28;20186;-63
2021/04/06 07:38:15;;;;;;;4.32;2.88;;;3.40;17.90;;;;;;5014659;28;20217;-63
2021/04/06 07:40:41;;;;;;;3.43;1.30;;;3.10;1.00;;;;;;5014706;28;20217;-62
2021/04/06 07:43:07;;;;;;;4.22;1.67;;;3.00;1.00;;;;;;5014439;28;20225;-63
2021/04/06 07:45:33;;;;;;;5.13;0.93;;;3.10;1.00;;;;;;5012344;28;20199;-63
2021/04/06 07:47:58;;;;;;;13.73;1.87;;;3.00;1.00;;;;;;5025228;28;20190;-63
2021/04/06 07:50:41;;;;;;;7.13;2.67;;;2.90;1.00;;;;;;5028209;28;20206;-62
2021/04/06 07:53:27;;;;;;;3.55;1.60;;;2.90;1.00;;;;;;5020477;28;20174;-63
2021/04/06 07:55:58;;;;;;;4.97;1.40;;;3.10;1.00;;;;;;5015156;28;20175;-63
2021/04/06 07:58:47;;;;;;;5.35;2.10;;;3.30;1.00;;;;;;5014600;28;20229;-64
2021/04/06 08:01:26;;;;;;;6.72;2.30;;;3.80;1.00;;;;;;5015013;28;20188;-64
2021/04/06 08:03:57;;;;;;;4.80;2.03;;;4.00;1.00;;;;;;5014833;28;20176;-63
2021/04/06 08:06:25;;;;;;;6.70;1.80;;;4.20;1.00;;;;;;5014824;28;20192;-63
2021/04/06 08:08:51;;;;;;;9.38;2.80;;;4.30;99.90;;;;;;5014388;28;20218;-64
2021/04/06 08:11:17;;;;;;;7.13;1.95;;;4.30;99.90;;;;;;5014670;28;20206;-63
2021/04/06 08:13:45;;;;;;;6.30;1.83;;;4.50;99.90;;;;;;5013381;28;20190;-64
2021/04/06 08:16:15;;;;;;;5.53;2.00;;;4.60;1.00;;;;;;5014705;28;20258;-63
2021/04/06 08:18:55;;;;;;;7.43;2.80;;;4.60;1.00;;;;;;5014763;28;20199;-63
2021/04/06 08:21:25;;;;;;;4.32;1.67;;;4.70;1.00;;;;;;5014602;28;20502;-64
2021/04/06 08:23:52;;;;;;;13.35;2.63;;;4.80;1.00;;;;;;5014393;28;20251;-63
2021/04/06 08:26:25;;;;;;;3.30;1.85;;;4.90;99.90;;;;;;5014302;28;20180;-62
2021/04/06 08:28:50;;;;;;;5.60;1.90;;;4.80;1.00;;;;;;5013637;28;20177;-66
2021/04/06 08:31:20;;;;;;;4.07;1.70;;;5.40;39.20;;;;;;5013364;28;20657;-63
2021/04/06 08:33:46;;;;;;;6.53;1.73;;;5.60;99.90;;;;;;5014196;28;20664;-63
2021/04/06 08:36:27;;;;;;;3.25;1.55;;;5.40;99.90;;;;;;5014452;28;20286;-63
2021/04/06 08:38:55;;;;;;;1.85;1.40;;;5.80;1.00;;;;;;5014497;28;20204;-63
2021/04/06 08:41:27;;;;;;;2.95;1.08;;;6.30;99.90;;;;;;5014319;28;20332;-65
2021/04/06 08:43:57;;;;;;;4.75;1.27;;;6.40;1.00;;;;;;5014213;28;20251;-64
2021/04/06 08:46:39;;;;;;;4.57;1.52;;;5.80;64.00;;;;;;5014322;28;20174;-66
2021/04/06 08:49:23;;;;;;;2.80;1.35;;;5.00;1.00;;;;;;5014312;28;20240;-64
2021/04/06 08:51:53;;;;;;;6.07;2.08;;;4.10;1.00;;;;;;5013864;28;20293;-62
2021/04/06 08:54:31;;;;;;;5.03;1.40;;;3.90;99.90;;;;;;5014023;28;20510;-67
2021/04/06 08:57:03;;;;;;;4.50;1.50;;;3.90;99.90;;;;;;5014193;28;20158;-68
2021/04/06 08:59:33;;;;;;;8.82;2.53;;;4.00;1.00;;;;;;5029434;28;20182;-69
2021/04/06 09:02:17;;;;;;;8.35;2.20;;;4.10;1.00;;;;;;5014008;28;20180;-67
2021/04/06 09:04:45;;;;;;;7.25;3.05;;;4.20;1.00;;;;;;5029218;28;20187;-67
2021/04/06 09:07:18;;;;;;;3.30;1.70;;;4.70;1.00;;;;;;5029077;28;20404;-67
2021/04/06 09:09:44;;;;;;;2.75;1.60;;;4.90;99.90;;;;;;5014098;28;20183;-68
2021/04/06 09:12:11;;;;;;;3.10;1.30;;;5.00;1.00;;;;;;5029197;28;20211;-67
2021/04/06 09:14:37;;;;;;;7.18;2.00;;;5.20;99.90;;;;;;5013769;28;20925;-62
2021/04/06 09:17:04;;;;;;;3.60;1.73;;;5.20;1.00;;;;;;5013756;28;20188;-63
2021/04/06 09:19:34;;;;;;;3.17;1.55;;;4.90;53.80;;;;;;5013968;28;20183;-62
2021/04/06 09:22:01;;;;;;;2.95;1.55;;;4.80;99.90;;;;;;5013907;28;20185;-64
2021/04/06 09:24:28;;;;;;;4.68;1.38;;;4.80;1.00;;;;;;5013651;28;20460;-65
2021/04/06 09:26:55;;;;;;;3.17;1.30;;;4.90;1.00;;;;;;5013939;28;20184;-64
2021/04/06 09:29:27;;;;;;;2.90;1.20;;;4.50;1.00;;;;;;5014070;28;20262;-64
2021/04/06 09:31:59;;;;;;;7.70;1.95;;;4.30;1.00;;;;;;5014057;28;20583;-64
2021/04/06 09:34:27;;;;;;;5.28;1.88;;;4.00;99.90;;;;;;5013761;28;20193;-63
2021/04/06 09:36:54;;;;;;;4.07;2.03;;;4.10;99.90;;;;;;5013624;28;20184;-64
2021/04/06 09:39:21;;;;;;;3.63;1.45;;;4.00;99.90;;;;;;5014356;28;20194;-62
2021/04/06 09:41:46;;;;;;;8.32;1.95;;;3.80;99.90;;;;;;5017267;28;20185;-62
2021/04/06 09:44:15;;;;;;;4.20;1.50;;;3.90;99.90;;;;;;5032498;28;20298;-64
2021/04/06 09:46:44;;;;;;;2.50;1.77;;;4.00;99.90;;;;;;5016845;28;20253;-63
2021/04/06 09:49:11;;;;;;;3.92;1.27;;;4.00;98.60;;;;;;5016936;28;20512;-59
2021/04/06 09:51:38;;;;;;;7.10;1.40;;;3.90;96.50;;;;;;5016990;28;20273;-61
2021/04/06 09:54:05;;;;;;;2.33;1.13;;;3.80;99.90;;;;;;5016933;28;20172;-60
2021/04/06 09:56:34;;;;;;;4.05;1.38;;;3.60;1.00;;;;;;5017206;28;20835;-61
2021/04/06 09:59:03;;;;;;;3.08;1.13;;;3.40;1.00;;;;;;5017086;28;20244;-63
2021/04/06 10:01:29;;;;;;;3.10;1.50;;;3.40;1.00;;;;;;5032424;28;20215;-64
2021/04/06 10:03:57;;;;;;;3.28;1.50;;;3.60;1.00;;;;;;5016941;28;20487;-63
2021/04/06 10:06:40;;;;;;;4.07;1.20;;;3.90;1.00;;;;;;5014456;28;20188;-63
2021/04/06 10:09:25;;;;;;;1.95;1.08;;;4.00;1.00;;;;;;5028539;28;20608;-66
2021/04/06 10:11:52;;;;;;;2.90;1.10;;;3.60;1.00;;;;;;5028053;28;20216;-66
2021/04/06 10:14:18;;;;;;;2.58;1.00;;;3.20;1.00;;;;;;5036281;28;20175;-64
2021/04/06 10:16:45;;;;;;;2.45;1.58;;;2.70;1.00;;;;;;5021758;28;20265;-66
2021/04/06 10:19:22;;;;;;;2.25;1.88;;;2.30;99.90;;;;;;5015391;28;20191;-64
2021/04/06 10:22:11;;;;;;;2.58;1.10;;;2.20;99.90;;;;;;5022213;28;20200;-60
2021/04/06 10:24:46;;;;;;;4.32;1.65;;;2.10;99.90;;;;;;5021687;28;20252;-63
2021/04/06 10:27:14;;;;;;;4.53;1.38;;;2.10;99.90;;;;;;5016206;28;20182;-60
2021/04/06 10:29:41;;;;;;;3.00;1.20;;;2.40;99.90;;;;;;5016519;28;20809;-58
2021/04/06 10:32:07;;;;;;;2.20;1.38;;;2.50;99.90;;;;;;5015259;28;20220;-63
2021/04/06 10:34:33;;;;;;;3.08;1.65;;;2.80;99.90;;;;;;5016046;28;20623;-68
2021/04/06 10:37:02;;;;;;;6.23;1.77;;;3.20;99.90;;;;;;5016560;28;20175;-65
2021/04/06 10:39:37;;;;;;;8.13;2.60;;;3.40;99.90;;;;;;5016274;28;20194;-64
2021/04/06 10:42:05;;;;;;;6.28;2.03;;;3.60;99.90;;;;;;5015350;28;20232;-66
2021/04/06 10:44:31;;;;;;;6.30;2.20;;;3.80;30.20;;;;;;5016250;28;20183;-64
2021/04/06 10:46:57;;;;;;;3.75;1.70;;;4.10;16.70;;;;;;5016445;28;20206;-65
2021/04/06 10:49:23;;;;;;;2.53;2.33;;;4.20;1.00;;;;;;5016135;28;20310;-68
2021/04/06 10:51:55;;;;;;;10.88;2.88;;;4.20;1.00;;;;;;5015253;28;20581;-63
2021/04/06 10:54:21;;;;;;;4.00;2.20;;;4.20;1.00;;;;;;5016063;28;20613;-63
2021/04/06 10:56:53;;;;;;;5.93;2.30;;;4.10;1.00;;;;;;5016412;28;20191;-65
2021/04/06 10:59:38;;;;;;;9.27;2.50;;;4.00;1.00;;;;;;5014610;28;20442;-64
2021/04/06 11:02:05;;;;;;;11.00;3.13;;;4.20;1.00;;;;;;4998623;28;20199;-62
2021/04/06 11:04:39;;;;;;;5.53;2.33;;;4.50;1.00;;;;;;5015486;28;20180;-62
2021/04/06 11:07:06;;;;;;;2.40;1.30;;;5.10;1.00;;;;;;5015594;28;20239;-62
2021/04/06 11:09:46;;;;;;;4.55;1.33;;;5.30;1.00;;;;;;5015725;28;20203;-68
2021/04/06 11:12:14;;;;;;;3.85;1.35;;;5.30;99.90;;;;;;5015720;28;20258;-65
2021/04/06 11:14:45;;;;;;;3.20;1.25;;;4.80;99.90;;;;;;5014516;28;20494;-65
2021/04/06 11:17:12;;;;;;;4.13;1.25;;;4.20;1.00;;;;;;5015794;28;20176;-67
2021/04/06 11:19:45;;;;;;;2.53;1.00;;;4.00;99.90;;;;;;5015481;28;20178;-66
2021/04/06 11:22:14;;;;;;;2.88;1.27;;;4.10;99.90;;;;;;5015389;28;20252;-66
2021/04/06 11:24:42;;;;;;;3.08;1.00;;;4.30;1.00;;;;;;5013900;28;20692;-65
2021/04/06 11:27:09;;;;;;;3.45;0.85;;;4.40;1.00;;;;;;5015281;28;20202;-65
2021/04/06 11:29:36;;;;;;;3.53;1.85;;;4.30;99.90;;;;;;5015246;28;20184;-66
2021/04/06 11:32:10;;;;;;;0.93;0.60;;;4.00;99.90;;;;;;5015288;28;20204;-66
2021/04/06 11:34:36;;;;;;;1.35;0.80;;;3.30;1.00;;;;;;5014861;28;20210;-66
2021/04/06 11:37:03;;;;;;;2.28;0.90;;;2.60;1.00;;;;;;5015203;28;20185;-63
2021/04/06 11:39:32;;;;;;;2.83;0.93;;;2.90;1.00;;;;;;5015365;28;20238;-63
2021/04/06 11:41:59;;;;;;;0.77;0.73;;;3.30;1.00;;;;;;5015780;28;20276;-63
2021/04/06 11:44:26;;;;;;;6.35;1.35;;;3.30;1.00;;;;;;5013827;28;20187;-64
2021/04/06 11:46:52;;;;;;;1.13;0.60;;;3.40;1.00;;;;;;5015421;28;20195;-64
2021/04/06 11:49:19;;;;;;;3.33;1.35;;;3.40;1.00;;;;;;5015075;28;20182;-65
2021/04/06 11:51:46;;;;;;;2.97;0.90;;;3.50;1.00;;;;;;5014773;28;20234;-65
2021/04/06 11:54:14;;;;;;;4.57;1.23;;;3.60;1.00;;;;;;5014725;28;20171;-66
2021/04/06 11:56:40;;;;;;;2.75;1.42;;;3.40;1.00;;;;;;5014907;28;20211;-64
2021/04/06 11:59:06;;;;;;;3.90;1.57;;;3.30;1.00;;;;;;5015034;28;20184;-64
2021/04/06 12:01:32;;;;;;;3.30;1.10;;;3.20;1.00;;;;;;5014617;28;20183;-66
2021/04/06 12:03:58;;;;;;;3.17;0.85;;;3.00;1.00;;;;;;5014378;28;20422;-65
2021/04/06 12:06:25;;;;;;;2.97;1.07;;;3.10;1.00;;;;;;5014202;28;20351;-65
2021/04/06 12:08:50;;;;;;;3.03;1.10;;;3.20;1.00;;;;;;5014926;28;20252;-65
2021/04/06 12:11:16;;;;;;;4.13;1.30;;;3.30;1.00;;;;;;5013274;28;20234;-64
2021/04/06 12:13:42;;;;;;;3.90;1.40;;;3.60;99.90;;;;;;5013918;28;20704;-65
2021/04/06 12:16:07;;;;;;;1.90;1.20;;;3.80;99.90;;;;;;5014433;28;20562;-65
2021/04/06 12:18:33;;;;;;;5.63;1.10;;;3.90;1.00;;;;;;5014629;28;20540;-63
2021/04/06 12:20:59;;;;;;;3.13;1.13;;;4.20;1.00;;;;;;5014590;28;20652;-65
2021/04/06 12:23:24;;;;;;;5.87;1.43;;;4.60;99.90;;;;;;5013930;28;20190;-66
2021/04/06 12:25:52;;;;;;;5.33;1.37;;;4.70;25.10;;;;;;5014183;28;20187;-65
2021/04/06 12:28:18;;;;;;;2.55;1.67;;;4.90;1.00;;;;;;5014457;28;20431;-64
2021/04/06 12:30:43;;;;;;;1.90;0.90;;;5.10;99.90;;;;;;5014569;28;20203;-64
2021/04/06 12:33:09;;;;;;;3.73;1.30;;;5.10;99.90;;;;;;5013978;28;20179;-65
2021/04/06 12:35:35;;;;;;;4.67;1.90;;;5.00;99.90;;;;;;5013135;28;20193;-65
2021/04/06 12:38:00;;;;;;;4.93;0.90;;;5.00;99.90;;;;;;5014209;28;20643;-65
2021/04/06 12:40:28;;;;;;;4.40;2.10;;;5.30;99.90;;;;;;5014251;28;20178;-66
2021/04/06 12:42:54;;;;;;;3.70;1.30;;;5.60;1.00;;;;;;5014468;28;20210;-66
2021/04/06 12:45:20;;;;;;;4.63;1.23;;;5.60;99.90;;;;;;5001355;28;20194;-66
2021/04/06 12:47:46;;;;;;;8.07;1.70;;;5.70;1.00;;;;;;5002834;28;20435;-66
2021/04/06 12:50:12;;;;;;;10.47;1.43;;;6.20;1.00;;;;;;4994458;28;20188;-67
2021/04/06 12:52:38;;;;;;;3.17;0.95;;;6.20;99.90;;;;;;4994543;28;20178;-66
2021/04/06 12:55:05;;;;;;;5.37;1.23;;;5.50;99.90;;;;;;4994279;28;20180;-66
2021/04/06 12:57:30;;;;;;;6.28;1.02;;;3.90;12.20;;;;;;4994623;28;20181;-66
2021/04/06 12:59:57;;;;;;;10.13;1.57;;;3.50;1.00;;;;;;4993510;28;20180;-65
2021/04/06 13:02:23;;;;;;;5.55;1.33;;;3.40;1.00;;;;;;4994459;28;20180;-65
2021/04/06 13:04:49;;;;;;;4.10;0.95;;;3.60;1.00;;;;;;4994464;28;20635;-64
2021/04/06 13:07:15;;;;;;;3.17;1.50;;;3.90;99.90;;;;;;5007608;28;20187;-66
2021/04/06 13:09:41;;;;;;;6.43;1.25;;;4.20;93.70;;;;;;5013930;28;20609;-65
2021/04/06 13:12:07;;;;;;;5.30;1.63;;;4.40;1.00;;;;;;5012937;28;20211;-65